Time;durP1;ratioP1;P1;durP2;ratioP2;P2;SDS_P1;SDS_P2;PMS_P1;PMS_P2;Temp;Humidity;BMP_temperature;BMP_pressure;BME280_temperature;BME280_humidity;BME280_pressure;Samples;Min_cycle;Max_cycle;Signal;HPM_P1;HPM_P2
2022/01/29 00:06:53;;;;;;;16.80;7.40;;;;;;;-0.79;83.78;99426.25;431853;1273;108322;-40
2022/01/29 00:17:00;;;;;;;7.00;3.80;;;;;;;-0.91;83.92;99430.13;431893;1273;95976;-40
2022/01/29 00:27:09;;;;;;;10.30;5.50;;;;;;;-1.06;84.38;99447.38;431993;1273;109925;-40
2022/01/29 00:37:15;;;;;;;14.90;4.90;;;;;;;-1.27;84.55;99457.56;431972;1273;108121;-40
2022/01/29 00:47:23;;;;;;;18.60;6.70;;;;;;;-1.47;84.55;99461.70;431834;1273;108816;-40
2022/01/29 00:57:33;;;;;;;13.70;7.00;;;;;;;-1.61;84.63;99461.17;431955;1273;95311;-40
2022/01/29 01:07:41;;;;;;;12.90;3.90;;;;;;;-1.66;84.88;99465.96;431844;1273;96278;-40
2022/01/29 01:17:48;;;;;;;9.70;4.10;;;;;;;-1.64;84.92;99464.42;431841;1272;108980;-41
2022/01/29 01:27:56;;;;;;;10.20;4.80;;;;;;;-1.66;85.14;99457.63;431751;1273;96175;-40
2022/01/29 01:48:13;;;;;;;11.70;4.00;;;;;;;-1.84;85.58;99461.11;432080;1273;108740;-40
2022/01/29 01:58:23;;;;;;;8.90;4.20;;;;;;;-1.92;85.38;99447.43;431879;1273;108857;-40
2022/01/29 02:08:30;;;;;;;10.10;4.20;;;;;;;-1.92;85.28;99434.30;431780;1273;96154;-40
2022/01/29 02:28:45;;;;;;;12.00;5.70;;;;;;;-1.98;85.70;99409.81;431614;1273;109241;-41
2022/01/29 02:38:53;;;;;;;12.00;4.20;;;;;;;-2.09;85.74;99410.02;431754;1273;108640;-40
2022/01/29 02:49:00;;;;;;;13.40;4.70;;;;;;;-2.24;85.81;99406.24;431507;1273;95336;-41
2022/01/29 02:59:07;;;;;;;13.60;4.40;;;;;;;-2.25;85.52;99411.17;431457;1273;96175;-39
2022/01/29 03:09:15;;;;;;;10.90;6.00;;;;;;;-2.13;85.69;99408.50;431563;1273;107846;-42
2022/01/29 03:19:22;;;;;;;11.30;5.70;;;;;;;-2.01;85.94;99394.96;431466;1273;96255;-43
2022/01/29 03:29:30;;;;;;;13.60;5.30;;;;;;;-2.03;85.90;99397.75;430972;1274;95323;-40
2022/01/29 03:39:38;;;;;;;14.10;5.10;;;;;;;-2.23;86.02;99387.70;430878;1273;109821;-40
2022/01/29 03:49:45;;;;;;;11.30;4.00;;;;;;;-2.47;86.09;99374.74;430956;1274;109034;-39
2022/01/29 03:59:52;;;;;;;8.40;4.90;;;;;;;-2.58;85.95;99366.66;430866;1274;109098;-41
2022/01/29 04:10:03;;;;;;;15.20;4.70;;;;;;;-2.54;86.12;99359.11;426865;1274;5735336;-40
2022/01/29 04:20:12;;;;;;;13.90;4.80;;;;;;;-2.54;86.18;99350.98;431418;1273;108888;-40
2022/01/29 04:40:31;;;;;;;13.50;4.90;;;;;;;-2.52;86.95;99330.63;431695;1273;95597;-40
2022/01/29 04:50:39;;;;;;;13.10;5.90;;;;;;;-2.55;86.89;99330.92;431714;1273;109742;-40
2022/01/29 05:00:46;;;;;;;18.90;5.60;;;;;;;-2.49;86.98;99321.77;431680;1273;108851;-40
2022/01/29 05:10:54;;;;;;;17.40;4.60;;;;;;;-2.35;87.15;99328.52;431833;1273;95718;-40
2022/01/29 05:31:27;;;;;;;26.40;10.10;;;;;;;-2.04;87.29;99326.82;431786;1273;108832;-40
2022/01/29 05:41:34;;;;;;;25.20;7.40;;;;;;;-2.08;87.49;99318.19;431709;1271;95279;-41
2022/01/29 05:51:41;;;;;;;23.50;8.90;;;;;;;-2.24;87.46;99305.77;431759;1273;96137;-40
2022/01/29 06:01:49;;;;;;;20.80;8.90;;;;;;;-2.50;87.26;99300.27;431724;1273;109708;-40
2022/01/29 06:11:57;;;;;;;18.30;6.40;;;;;;;-2.65;87.63;99286.14;431746;1273;109030;-39
2022/01/29 06:32:10;;;;;;;26.00;11.50;;;;;;;-2.35;87.98;99250.98;431871;1273;96051;-41
2022/01/29 06:42:17;;;;;;;22.50;9.00;;;;;;;-2.14;88.04;99244.66;431732;1270;109753;-40
2022/01/29 06:52:25;;;;;;;36.70;13.20;;;;;;;-1.96;87.79;99243.55;431805;1273;108886;-41
2022/01/29 07:12:37;;;;;;;36.80;13.90;;;;;;;-1.92;88.09;99229.88;431725;1273;95345;-39
2022/01/29 07:22:45;;;;;;;36.00;14.40;;;;;;;-1.70;88.30;99209.23;431638;1273;95528;-40
2022/01/29 07:32:52;;;;;;;33.50;13.00;;;;;;;-1.08;88.38;99198.05;431858;1273;110077;-40
2022/01/29 07:42:59;;;;;;;22.10;9.00;;;;;;;-0.11;88.67;99184.70;431819;1273;108675;-40
2022/01/29 07:53:06;;;;;;;28.20;14.00;;;;;;;1.18;88.58;99169.27;430625;1274;96029;-40
2022/01/29 08:03:13;;;;;;;23.20;10.60;;;;;;;0.91;87.35;99165.42;431950;1273;109708;-42
2022/01/29 08:13:21;;;;;;;29.50;11.30;;;;;;;0.66;87.32;99151.27;431908;1273;108919;-41
2022/01/29 08:23:29;;;;;;;18.70;8.40;;;;;;;0.49;87.30;99141.30;431826;1273;109028;-40
2022/01/29 08:33:36;;;;;;;26.30;11.20;;;;;;;0.49;87.35;99121.05;431791;1273;96266;-39
2022/01/29 08:43:44;;;;;;;17.00;7.40;;;;;;;0.64;87.37;99106.36;431821;1272;109724;-40
2022/01/29 08:53:51;;;;;;;31.60;14.40;;;;;;;0.77;87.53;99096.88;431855;1273;108904;-39
2022/01/29 09:03:59;;;;;;;38.90;16.10;;;;;;;0.75;87.57;99079.09;432047;1273;108375;-39
2022/01/29 09:14:06;;;;;;;29.70;14.50;;;;;;;0.94;87.47;99079.20;431949;1273;97489;-39
2022/01/29 09:24:14;;;;;;;25.30;11.00;;;;;;;1.29;87.08;99071.95;430759;1276;111136;-40
2022/01/29 09:34:21;;;;;;;35.80;14.60;;;;;;;1.39;87.17;99065.31;430804;1274;109150;-42
2022/01/29 09:44:30;;;;;;;39.50;16.10;;;;;;;1.40;87.10;99040.66;431913;1273;98165;-41
2022/01/29 09:54:37;;;;;;;43.20;16.10;;;;;;;1.71;86.94;99016.86;432166;1273;111047;-39
2022/01/29 10:04:51;;;;;;;26.70;9.60;;;;;;;2.22;86.56;98985.79;431890;1273;108934;-42
2022/01/29 10:14:58;;;;;;;35.70;14.70;;;;;;;2.43;86.09;98961.20;432507;1270;96968;-40
2022/01/29 10:25:05;;;;;;;41.90;14.70;;;;;;;2.41;86.08;98964.17;432311;1270;111253;-40
2022/01/29 10:35:12;;;;;;;34.60;13.20;;;;;;;2.31;86.00;98950.92;432253;1270;108733;-40
2022/01/29 10:45:32;;;;;;;25.50;10.60;;;;;;;2.20;85.49;98932.36;432385;1272;108311;-41
2022/01/29 10:55:58;;;;;;;31.40;12.20;;;;;;;2.27;85.07;98904.60;432310;1270;97903;-41
2022/01/29 11:06:07;;;;;;;32.80;12.40;;;;;;;2.42;85.02;98873.96;432324;1270;111179;-42
